createdAt,value
2019-04-30T00:02:09.608Z,10.70
2019-04-30T00:04:42.625Z,10.70
2019-04-30T00:07:15.487Z,10.70
2019-04-30T00:09:44.956Z,10.60
2019-04-30T00:12:13.400Z,10.60
2019-04-30T00:14:41.801Z,10.60
2019-04-30T00:17:10.692Z,10.60
2019-04-30T00:19:40.321Z,10.60
2019-04-30T00:22:08.720Z,10.70
2019-04-30T00:24:39.879Z,10.60
2019-04-30T00:27:07.237Z,10.70
2019-04-30T00:29:35.716Z,10.70
2019-04-30T00:32:07.640Z,10.70
2019-04-30T00:34:35.966Z,10.70
2019-04-30T00:37:07.420Z,10.60
2019-04-30T00:39:35.561Z,10.70
2019-04-30T00:42:05.352Z,10.60
2019-04-30T00:44:35.550Z,10.60
2019-04-30T00:47:08.249Z,10.60
2019-04-30T00:49:35.377Z,10.60
2019-04-30T00:52:05.161Z,10.60
2019-04-30T00:54:35.168Z,10.50
2019-04-30T00:57:07.543Z,10.60
2019-04-30T00:59:35.090Z,10.50
2019-04-30T01:02:06.086Z,10.50
2019-04-30T01:04:36.686Z,10.50
2019-04-30T01:07:08.654Z,10.50
2019-04-30T01:09:39.602Z,10.50
2019-04-30T01:12:07.164Z,10.50
2019-04-30T01:14:35.561Z,10.40
2019-04-30T01:17:08.218Z,10.40
2019-04-30T01:19:34.244Z,10.50
2019-04-30T01:22:02.693Z,10.40
2019-04-30T01:24:33.149Z,10.40
2019-04-30T01:27:06.864Z,10.50
2019-04-30T01:29:41.490Z,10.40
2019-04-30T01:32:04.264Z,10.40
2019-04-30T01:34:32.661Z,10.40
2019-04-30T01:37:01.056Z,10.40
2019-04-30T01:39:31.556Z,10.40
2019-04-30T01:42:02.941Z,10.40
2019-04-30T01:44:29.701Z,10.40
2019-04-30T01:46:58.803Z,10.40
2019-04-30T01:49:30.070Z,10.40
2019-04-30T01:52:00.494Z,10.40
2019-04-30T01:54:29.132Z,10.40
2019-04-30T01:57:16.156Z,10.40
2019-04-30T02:00:02.724Z,10.40
2019-04-30T02:02:35.852Z,10.30
2019-04-30T02:05:08.808Z,10.30
2019-04-30T02:07:38.789Z,10.30
2019-04-30T02:10:09.022Z,10.30
2019-04-30T02:12:39.181Z,10.30
2019-04-30T02:15:09.453Z,10.30
2019-04-30T02:17:38.866Z,10.30
2019-04-30T02:20:09.009Z,10.30
2019-04-30T02:22:38.971Z,10.30
2019-04-30T02:25:09.645Z,10.30
2019-04-30T02:27:39.064Z,10.30
2019-04-30T02:30:11.078Z,10.30
2019-04-30T02:32:39.581Z,10.30
2019-04-30T02:35:11.282Z,10.30
2019-04-30T02:37:59.595Z,10.30
2019-04-30T02:40:30.187Z,10.30
2019-04-30T02:43:01.822Z,10.30
2019-04-30T02:45:30.033Z,10.30
2019-04-30T02:48:02.709Z,10.30
2019-04-30T02:50:34.537Z,10.30
2019-04-30T02:53:06.028Z,10.20
2019-04-30T02:55:42.937Z,10.20
2019-04-30T02:58:12.782Z,10.30
2019-04-30T03:00:41.256Z,10.20
2019-04-30T03:03:10.271Z,10.40
2019-04-30T03:05:40.297Z,10.30
2019-04-30T03:08:09.600Z,10.30
2019-04-30T03:10:40.173Z,10.30
2019-04-30T03:13:09.795Z,10.30
2019-04-30T03:15:39.526Z,10.30
2019-04-30T03:18:16.475Z,10.20
2019-04-30T03:20:46.510Z,10.20
2019-04-30T03:23:14.916Z,10.20
2019-04-30T03:25:43.303Z,10.20
2019-04-30T03:28:11.699Z,10.30
2019-04-30T03:30:41.916Z,10.30
2019-04-30T03:33:12.675Z,10.30
2019-04-30T03:35:46.644Z,10.20
2019-04-30T03:38:10.455Z,10.30
2019-04-30T03:40:40.471Z,10.30
2019-04-30T03:43:10.338Z,10.20
2019-04-30T03:45:40.210Z,10.20
2019-04-30T03:48:10.152Z,10.30
2019-04-30T03:50:50.200Z,10.30
2019-04-30T03:53:10.453Z,10.30
2019-04-30T03:55:40.158Z,10.20
2019-04-30T03:58:09.454Z,10.20
2019-04-30T04:00:46.731Z,10.20
2019-04-30T04:03:16.736Z,10.20
2019-04-30T04:05:49.771Z,10.20
2019-04-30T04:08:29.390Z,10.10
2019-04-30T04:11:00.536Z,10.20
2019-04-30T04:13:30.128Z,10.20
2019-04-30T04:15:59.913Z,10.20
2019-04-30T04:18:30.180Z,10.20
2019-04-30T04:21:08.905Z,10.20
2019-04-30T04:23:32.828Z,10.20
2019-04-30T04:25:59.682Z,10.20
2019-04-30T04:28:29.961Z,10.20
2019-04-30T04:31:00.138Z,10.10
2019-04-30T04:33:29.662Z,10.10
2019-04-30T04:35:59.778Z,10.10
2019-04-30T04:38:30.340Z,10.10
2019-04-30T04:41:02.661Z,10.10
2019-04-30T04:43:30.041Z,10.10
2019-04-30T04:45:59.420Z,10.20
2019-04-30T04:48:29.793Z,10.20
2019-04-30T04:51:00.040Z,10.20
2019-04-30T04:53:30.475Z,10.20
2019-04-30T04:55:59.933Z,10.20
2019-04-30T04:58:30.327Z,10.20
2019-04-30T05:00:59.291Z,10.20
2019-04-30T05:03:30.778Z,10.30
2019-04-30T05:06:01.902Z,10.40
2019-04-30T05:08:29.301Z,10.40
2019-04-30T05:10:59.351Z,10.40
2019-04-30T05:13:29.072Z,10.50
2019-04-30T05:15:59.395Z,10.50
2019-04-30T05:18:29.097Z,10.60
2019-04-30T05:20:59.016Z,10.70
2019-04-30T05:23:29.831Z,10.80
2019-04-30T05:25:58.949Z,10.70
2019-04-30T05:28:29.927Z,10.80
2019-04-30T05:30:59.387Z,10.80
2019-04-30T05:33:28.603Z,10.90
2019-04-30T05:35:59.244Z,10.80
2019-04-30T05:38:28.683Z,10.90
2019-04-30T05:40:59.444Z,11.00
2019-04-30T05:43:28.960Z,11.00
2019-04-30T05:45:58.677Z,11.10
2019-04-30T05:48:28.582Z,11.20
2019-04-30T05:50:59.102Z,11.30
2019-04-30T05:53:28.682Z,11.40
2019-04-30T05:55:59.267Z,11.50
2019-04-30T05:58:29.774Z,11.60
2019-04-30T06:00:59.720Z,11.60
2019-04-30T06:03:32.939Z,11.70
2019-04-30T06:05:58.937Z,11.90
2019-04-30T06:08:29.314Z,12.10
2019-04-30T06:10:59.832Z,12.10
2019-04-30T06:13:32.017Z,12.10
2019-04-30T06:16:01.760Z,12.10
2019-04-30T06:18:30.233Z,12.10
2019-04-30T06:20:59.880Z,12.20
2019-04-30T06:23:29.391Z,12.20
2019-04-30T06:26:08.697Z,12.30
2019-04-30T06:28:30.893Z,12.40
2019-04-30T06:30:59.355Z,12.40
2019-04-30T06:33:29.103Z,12.40
2019-04-30T06:36:00.575Z,12.40
2019-04-30T06:38:29.165Z,12.50
2019-04-30T06:40:58.882Z,12.50
2019-04-30T06:43:28.764Z,12.60
2019-04-30T06:45:58.944Z,12.80
2019-04-30T06:48:30.570Z,12.90
2019-04-30T06:50:59.341Z,13.00
2019-04-30T06:53:29.231Z,13.00
2019-04-30T06:55:58.988Z,13.10
2019-04-30T06:58:29.155Z,13.20
2019-04-30T07:00:59.551Z,13.20
2019-04-30T07:03:29.074Z,13.20
2019-04-30T07:05:58.589Z,13.20
2019-04-30T07:08:54.812Z,13.20
2019-04-30T07:11:29.281Z,13.30
2019-04-30T07:14:00.045Z,13.60
2019-04-30T07:16:29.863Z,13.90
2019-04-30T07:18:58.642Z,14.10
2019-04-30T07:21:31.187Z,14.10
2019-04-30T07:23:59.561Z,14.10
2019-04-30T07:26:28.953Z,13.90
2019-04-30T07:29:01.839Z,13.60
2019-04-30T07:31:29.568Z,13.40
2019-04-30T07:33:59.455Z,13.40
2019-04-30T07:36:43.397Z,13.30
2019-04-30T07:38:59.963Z,13.10
2019-04-30T07:41:30.915Z,13.00
2019-04-30T07:43:59.317Z,12.80
2019-04-30T07:46:30.033Z,12.70
2019-04-30T07:49:00.018Z,12.40
2019-04-30T07:51:32.130Z,12.30
2019-04-30T07:53:59.116Z,12.30
2019-04-30T07:56:32.461Z,12.30
2019-04-30T07:59:00.768Z,12.30
2019-04-30T08:01:29.489Z,12.50
2019-04-30T08:04:02.869Z,12.50
2019-04-30T08:06:31.766Z,12.70
2019-04-30T08:09:01.471Z,12.70
2019-04-30T08:11:34.487Z,12.60
2019-04-30T08:14:01.299Z,12.70
2019-04-30T08:16:30.330Z,12.90
2019-04-30T08:18:59.159Z,13.20
2019-04-30T08:21:28.757Z,13.50
2019-04-30T08:23:59.344Z,13.60
2019-04-30T08:26:28.666Z,13.70
2019-04-30T08:28:59.798Z,13.70
2019-04-30T08:31:29.263Z,14.10
2019-04-30T08:33:59.157Z,14.40
2019-04-30T08:36:29.786Z,14.70
2019-04-30T08:38:59.727Z,14.90
2019-04-30T08:41:29.294Z,15.00
2019-04-30T08:43:59.816Z,15.10
2019-04-30T08:46:28.763Z,15.30
2019-04-30T08:48:58.737Z,15.50
2019-04-30T08:51:30.504Z,15.70
2019-04-30T08:53:58.680Z,16.50
2019-04-30T08:56:29.245Z,18.50
2019-04-30T08:58:59.261Z,20.10
2019-04-30T09:01:29.432Z,20.30
2019-04-30T09:03:59.699Z,21.60
2019-04-30T09:06:30.287Z,22.60
2019-04-30T09:09:00.436Z,22.30
2019-04-30T09:11:38.342Z,21.60
2019-04-30T09:13:58.948Z,20.90
2019-04-30T09:16:29.466Z,20.50
2019-04-30T09:18:59.505Z,20.20
2019-04-30T09:21:29.941Z,19.70
2019-04-30T09:23:59.404Z,19.80
2019-04-30T09:26:29.069Z,21.60
2019-04-30T09:28:59.288Z,23.70
2019-04-30T09:31:29.578Z,24.60
2019-04-30T09:34:00.833Z,24.50
2019-04-30T09:36:29.269Z,24.20
2019-04-30T09:38:58.808Z,23.60
2019-04-30T09:41:28.875Z,23.70
2019-04-30T09:43:59.699Z,23.30
2019-04-30T09:46:29.989Z,22.60
2019-04-30T09:48:59.762Z,21.80
2019-04-30T09:51:30.435Z,22.60
2019-04-30T09:54:02.105Z,23.70
2019-04-30T09:56:29.446Z,24.10
2019-04-30T09:58:59.248Z,24.80
2019-04-30T10:01:28.333Z,26.00
2019-04-30T10:03:56.942Z,27.10
2019-04-30T10:06:36.995Z,28.50
2019-04-30T10:08:56.395Z,29.60
2019-04-30T10:11:26.505Z,29.70
2019-04-30T10:13:54.912Z,29.40
2019-04-30T10:16:29.612Z,29.10
2019-04-30T10:18:59.234Z,29.90
2019-04-30T10:21:29.000Z,29.90
2019-04-30T10:24:10.433Z,29.70
2019-04-30T10:26:28.263Z,28.40
2019-04-30T10:28:58.261Z,27.00
2019-04-30T10:31:26.678Z,25.90
2019-04-30T10:33:55.069Z,26.50
2019-04-30T10:36:23.538Z,27.90
2019-04-30T10:38:51.955Z,28.00
2019-04-30T10:41:20.348Z,28.40
2019-04-30T10:43:49.374Z,29.20
2019-04-30T10:46:18.268Z,29.90
2019-04-30T10:48:46.664Z,29.90
2019-04-30T10:51:15.153Z,29.30
2019-04-30T10:53:43.545Z,28.70
2019-04-30T10:56:12.293Z,29.40
2019-04-30T10:58:40.762Z,30.20
2019-04-30T11:01:09.673Z,31.20
2019-04-30T11:03:39.150Z,32.30
2019-04-30T11:06:08.646Z,32.70
2019-04-30T11:08:37.700Z,33.10
2019-04-30T11:11:06.871Z,33.50
2019-04-30T11:13:35.363Z,33.80
2019-04-30T11:16:12.678Z,33.90
2019-04-30T11:18:34.129Z,32.20
2019-04-30T11:21:03.398Z,30.20
2019-04-30T11:23:32.664Z,30.00
2019-04-30T11:26:01.931Z,30.50
2019-04-30T11:28:31.537Z,31.20
2019-04-30T11:31:18.652Z,32.50
2019-04-30T11:33:48.113Z,32.80
2019-04-30T11:36:19.226Z,32.40
2019-04-30T11:38:48.758Z,32.00
2019-04-30T11:41:29.815Z,32.60
2019-04-30T11:43:49.538Z,33.00
2019-04-30T11:46:28.560Z,32.60
2019-04-30T11:48:58.562Z,32.40
2019-04-30T11:51:27.053Z,32.60
2019-04-30T11:53:56.598Z,33.20
2019-04-30T11:56:25.057Z,31.80
2019-04-30T11:58:53.498Z,30.00
2019-04-30T12:01:26.433Z,29.40
2019-04-30T12:03:54.842Z,30.30
2019-04-30T12:06:23.317Z,31.10
2019-04-30T12:09:02.652Z,31.80
2019-04-30T12:11:35.664Z,32.10
2019-04-30T12:14:05.198Z,32.60
2019-04-30T12:16:34.570Z,33.60
2019-04-30T12:19:02.958Z,33.50
2019-04-30T12:21:31.405Z,33.20
2019-04-30T12:23:59.831Z,33.10
2019-04-30T12:26:28.900Z,33.10
2019-04-30T12:28:57.405Z,31.70
2019-04-30T12:31:25.906Z,31.20
2019-04-30T12:33:54.305Z,31.30
2019-04-30T12:36:22.925Z,32.20
2019-04-30T12:38:51.415Z,32.90
2019-04-30T12:41:19.812Z,33.30
2019-04-30T12:43:48.212Z,33.30
2019-04-30T12:46:18.989Z,33.20
2019-04-30T12:48:51.170Z,33.00
2019-04-30T12:51:44.800Z,32.80
2019-04-30T12:54:05.633Z,31.90
2019-04-30T12:56:35.670Z,30.80
2019-04-30T12:59:04.132Z,31.40
2019-04-30T13:01:34.188Z,31.60
2019-04-30T13:04:02.744Z,31.80
2019-04-30T13:06:31.576Z,32.20
2019-04-30T13:09:01.395Z,31.80
2019-04-30T13:11:31.690Z,31.60
2019-04-30T13:14:01.352Z,31.60
2019-04-30T13:16:30.737Z,31.10
2019-04-30T13:18:59.456Z,31.10
2019-04-30T13:21:28.580Z,31.40
2019-04-30T13:23:57.519Z,31.80
2019-04-30T13:26:25.925Z,31.90
2019-04-30T13:28:58.928Z,32.00
2019-04-30T13:31:29.463Z,31.40
2019-04-30T13:34:15.476Z,30.40
2019-04-30T13:36:43.861Z,29.80
2019-04-30T13:39:22.697Z,29.70
2019-04-30T13:41:52.733Z,30.00
2019-04-30T13:44:22.765Z,29.70
2019-04-30T13:46:51.180Z,29.20
2019-04-30T13:49:20.038Z,29.10
2019-04-30T13:51:48.442Z,29.00
2019-04-30T13:54:16.836Z,28.60
2019-04-30T13:56:45.225Z,28.50
2019-04-30T13:59:13.624Z,28.60
2019-04-30T14:01:42.113Z,28.60
2019-04-30T14:04:15.261Z,28.80
2019-04-30T14:06:51.378Z,29.00
2019-04-30T14:09:24.377Z,29.60
2019-04-30T14:11:52.776Z,29.40
2019-04-30T14:14:21.243Z,28.40
2019-04-30T14:16:49.740Z,28.20
2019-04-30T14:19:19.555Z,28.10
2019-04-30T14:21:49.419Z,28.50
2019-04-30T14:24:19.280Z,29.10
2019-04-30T14:26:49.100Z,29.40
2019-04-30T14:29:17.999Z,29.50
2019-04-30T14:31:46.480Z,29.10
2019-04-30T14:34:14.874Z,29.20
2019-04-30T14:36:43.264Z,29.20
2019-04-30T14:39:16.387Z,29.70
2019-04-30T14:41:42.756Z,30.30
2019-04-30T14:44:14.494Z,30.20
2019-04-30T14:47:04.997Z,29.90
2019-04-30T14:49:56.792Z,29.50
2019-04-30T14:52:15.084Z,29.00
2019-04-30T14:55:03.364Z,29.10
2019-04-30T14:57:42.576Z,29.20
2019-04-30T15:00:31.834Z,29.50
2019-04-30T15:03:03.996Z,29.70
2019-04-30T15:05:38.960Z,29.80
2019-04-30T15:08:02.605Z,29.50
2019-04-30T15:10:30.992Z,29.00
2019-04-30T15:13:00.232Z,29.10
2019-04-30T15:15:29.527Z,29.50
2019-04-30T15:17:59.289Z,29.90
2019-04-30T15:20:29.661Z,29.80
2019-04-30T15:23:19.177Z,29.50
2019-04-30T15:25:48.561Z,28.90
2019-04-30T15:28:16.994Z,28.40
2019-04-30T15:30:45.396Z,28.20
2019-04-30T15:33:18.465Z,28.20
2019-04-30T15:35:48.179Z,28.60
2019-04-30T15:38:17.008Z,28.90
2019-04-30T15:40:45.409Z,28.70
2019-04-30T15:43:13.838Z,28.30
2019-04-30T15:45:42.228Z,27.90
2019-04-30T15:48:10.632Z,28.00
2019-04-30T15:50:39.290Z,28.10
2019-04-30T15:53:09.465Z,28.40
2019-04-30T15:55:38.044Z,28.70
2019-04-30T15:58:10.822Z,28.60
2019-04-30T16:00:39.450Z,28.20
2019-04-30T16:03:09.939Z,27.40
2019-04-30T16:05:42.732Z,26.90
2019-04-30T16:08:12.761Z,26.50
2019-04-30T16:10:51.996Z,26.00
2019-04-30T16:13:30.351Z,25.60
2019-04-30T16:15:59.179Z,24.50
2019-04-30T16:18:30.390Z,23.20
2019-04-30T16:20:59.520Z,21.90
2019-04-30T16:23:27.936Z,21.00
2019-04-30T16:25:56.409Z,20.30
2019-04-30T16:28:24.802Z,19.80
2019-04-30T16:30:53.234Z,19.30
2019-04-30T16:33:21.616Z,19.00
2019-04-30T16:35:51.118Z,18.70
2019-04-30T16:38:21.005Z,18.30
2019-04-30T16:40:49.986Z,18.20
2019-04-30T16:43:20.143Z,18.10
2019-04-30T16:45:49.388Z,18.00
2019-04-30T16:48:19.314Z,17.80
2019-04-30T16:50:51.087Z,17.60
2019-04-30T16:53:18.657Z,17.50
2019-04-30T16:55:50.010Z,17.30
2019-04-30T16:58:19.602Z,17.10
2019-04-30T17:00:49.236Z,16.90
2019-04-30T17:03:22.104Z,16.70
2019-04-30T17:05:52.135Z,16.60
2019-04-30T17:08:22.174Z,16.60
2019-04-30T17:10:58.346Z,16.50
2019-04-30T17:13:31.072Z,16.50
2019-04-30T17:16:11.299Z,16.40
2019-04-30T17:18:41.855Z,16.40
2019-04-30T17:21:10.144Z,16.30
2019-04-30T17:23:38.546Z,16.10
2019-04-30T17:26:06.997Z,15.90
2019-04-30T17:28:35.642Z,15.70
2019-04-30T17:31:04.037Z,15.60
2019-04-30T17:33:32.441Z,15.50
2019-04-30T17:36:00.831Z,15.50
2019-04-30T17:38:29.240Z,15.50
2019-04-30T17:40:57.633Z,15.40
2019-04-30T17:43:26.025Z,15.40
2019-04-30T17:45:54.447Z,15.30
2019-04-30T17:48:22.866Z,15.30
2019-04-30T17:50:51.260Z,15.20
2019-04-30T17:53:21.338Z,15.00
2019-04-30T17:55:49.736Z,14.90
2019-04-30T17:58:20.554Z,14.80
2019-04-30T18:00:49.960Z,14.70
2019-04-30T18:03:18.968Z,14.60
2019-04-30T18:05:49.184Z,14.50
2019-04-30T18:08:18.357Z,14.40
2019-04-30T18:10:46.760Z,14.30
2019-04-30T18:13:15.168Z,14.20
2019-04-30T18:15:43.763Z,14.10
2019-04-30T18:18:25.836Z,14.00
2019-04-30T18:21:04.775Z,13.90
2019-04-30T18:23:37.993Z,13.80
2019-04-30T18:26:08.024Z,13.70
2019-04-30T18:28:36.439Z,13.60
2019-04-30T18:31:06.429Z,13.40
2019-04-30T18:33:34.824Z,13.30
2019-04-30T18:36:03.295Z,13.10
2019-04-30T18:38:31.777Z,13.00
2019-04-30T18:41:01.040Z,13.00
2019-04-30T18:43:29.446Z,12.80
2019-04-30T18:45:57.840Z,12.70
2019-04-30T18:48:26.244Z,12.50
2019-04-30T18:50:54.637Z,12.30
2019-04-30T18:53:24.669Z,12.20
2019-04-30T18:55:53.077Z,12.10
2019-04-30T18:58:21.468Z,11.90
2019-04-30T19:00:50.012Z,11.70
2019-04-30T19:03:21.558Z,11.50
2019-04-30T19:05:50.233Z,11.30
2019-04-30T19:08:29.494Z,11.20
2019-04-30T19:11:00.491Z,11.10
2019-04-30T19:13:30.685Z,11.00
2019-04-30T19:16:18.759Z,10.90
2019-04-30T19:18:47.717Z,10.80
2019-04-30T19:21:16.129Z,10.70
2019-04-30T19:23:44.541Z,10.60
2019-04-30T19:26:12.940Z,10.50
2019-04-30T19:28:41.337Z,10.40
2019-04-30T19:31:11.972Z,10.40
2019-04-30T19:33:40.389Z,10.40
2019-04-30T19:36:09.799Z,10.30
2019-04-30T19:38:38.880Z,10.30
2019-04-30T19:41:10.641Z,10.20
2019-04-30T19:43:39.077Z,10.20
2019-04-30T19:46:09.206Z,10.10
2019-04-30T19:48:39.736Z,10.10
2019-04-30T19:51:08.877Z,10.10
2019-04-30T19:53:39.521Z,10.00
2019-04-30T19:56:07.936Z,9.90
2019-04-30T19:58:48.740Z,9.90
2019-04-30T20:01:06.469Z,9.80
2019-04-30T20:03:34.853Z,9.60
2019-04-30T20:06:03.269Z,9.60
2019-04-30T20:08:31.658Z,9.50
2019-04-30T20:11:00.044Z,9.50
2019-04-30T20:13:36.731Z,9.40
2019-04-30T20:15:59.401Z,9.30
2019-04-30T20:18:29.233Z,9.20
2019-04-30T20:21:01.180Z,9.20
2019-04-30T20:23:29.724Z,9.10
2019-04-30T20:25:58.109Z,9.00
2019-04-30T20:28:38.426Z,8.90
2019-04-30T20:30:56.621Z,8.80
2019-04-30T20:33:25.008Z,8.70
2019-04-30T20:35:53.405Z,8.60
2019-04-30T20:38:25.868Z,8.50
2019-04-30T20:41:00.159Z,8.50
2019-04-30T20:43:24.402Z,8.40
2019-04-30T20:45:52.789Z,8.40
2019-04-30T20:48:21.189Z,8.40
2019-04-30T20:50:49.577Z,8.30
2019-04-30T20:53:19.779Z,8.30
2019-04-30T20:55:49.536Z,8.30
2019-04-30T20:58:18.278Z,8.20
2019-04-30T21:00:46.684Z,8.20
2019-04-30T21:03:15.069Z,8.10
2019-04-30T21:05:43.459Z,8.10
2019-04-30T21:08:11.874Z,8.00
2019-04-30T21:10:40.243Z,8.00
2019-04-30T21:13:10.964Z,7.90
2019-04-30T21:15:39.544Z,7.90
2019-04-30T21:18:09.508Z,7.90
2019-04-30T21:20:38.870Z,7.90
2019-04-30T21:23:09.305Z,7.80
2019-04-30T21:25:38.717Z,7.80
2019-04-30T21:28:09.597Z,7.80
2019-04-30T21:30:37.662Z,7.70
2019-04-30T21:33:16.634Z,7.70
2019-04-30T21:35:48.562Z,7.70
2019-04-30T21:38:19.375Z,7.60
2019-04-30T21:40:49.231Z,7.60
2019-04-30T21:43:17.772Z,7.60
2019-04-30T21:45:46.174Z,7.60
2019-04-30T21:48:14.566Z,7.60
2019-04-30T21:50:42.961Z,7.70
2019-04-30T21:53:11.345Z,7.60
2019-04-30T21:55:40.001Z,7.50
2019-04-30T21:58:09.540Z,7.40
2019-04-30T22:00:42.669Z,7.40
2019-04-30T22:03:11.149Z,7.40
2019-04-30T22:05:39.663Z,7.40
2019-04-30T22:08:09.090Z,7.30
2019-04-30T22:10:38.150Z,7.30
2019-04-30T22:13:08.757Z,7.20
2019-04-30T22:15:36.719Z,7.10
2019-04-30T22:18:05.136Z,7.10
2019-04-30T22:20:33.533Z,7.10
2019-04-30T22:23:02.964Z,7.00
2019-04-30T22:25:31.446Z,6.90
2019-04-30T22:27:59.892Z,6.90
2019-04-30T22:30:28.300Z,6.90
2019-04-30T22:32:59.370Z,6.80
2019-04-30T22:35:28.484Z,6.90
2019-04-30T22:38:01.452Z,6.90
2019-04-30T22:40:31.579Z,6.90
2019-04-30T22:42:59.949Z,6.90
2019-04-30T22:45:30.006Z,6.90
2019-04-30T22:47:58.838Z,6.90
2019-04-30T22:50:27.452Z,6.80
2019-04-30T22:52:55.847Z,6.70
2019-04-30T22:55:24.236Z,6.70
2019-04-30T22:57:52.636Z,6.60
2019-04-30T23:00:22.687Z,6.50
2019-04-30T23:02:58.681Z,6.40
2019-04-30T23:05:27.076Z,6.40
2019-04-30T23:07:55.459Z,6.30
2019-04-30T23:10:24.668Z,6.30
2019-04-30T23:12:53.167Z,6.30
2019-04-30T23:15:21.686Z,6.30
2019-04-30T23:17:50.085Z,6.20
2019-04-30T23:20:18.556Z,6.20
2019-04-30T23:22:46.944Z,6.20
2019-04-30T23:25:15.397Z,6.20
2019-04-30T23:27:43.797Z,6.30
2019-04-30T23:30:13.018Z,6.30
2019-04-30T23:32:41.412Z,6.30
2019-04-30T23:35:09.937Z,6.30
2019-04-30T23:37:38.342Z,6.30
2019-04-30T23:40:24.155Z,6.20
2019-04-30T23:42:53.962Z,6.20
2019-04-30T23:45:24.082Z,6.20
2019-04-30T23:47:52.540Z,6.10
2019-04-30T23:50:21.009Z,6.00
2019-04-30T23:52:49.401Z,5.90
2019-04-30T23:55:17.876Z,5.90
2019-04-30T23:57:46.264Z,5.90
